Terminal Aerodrome Forecast
Issued by NWS Knoxville/Tri Cities, TN

Home | Current Version | Previous Version | Text Only | Print | Product List | Glossary On
Versions: 1 2 3 4 5 6 7 8 9 10 11 12 13 14 15 16 17 18 19 20 21 22 23 24 25 26 27 28 29 30 31 32 33 34 35 36 37 38 39 40 41 42 43
000
FTUS44 KMRX 051128
TAFCHA
TAF
KCHA 051128Z 0512/0612 18003KT 4SM BR SCT009 BKN025 OVC060
     FM051400 21008KT P6SM BKN025
     FM051600 24006KT P6SM VCSH BKN030
     FM052000 24004KT P6SM VCSH OVC035
      TEMPO 0520/0524 5SM -TSRA BR BKN035CB
     FM060000 24004KT P6SM SCT030 BKN100
     FM060600 22003KT 6SM BR BKN100
     FM060900 00000KT 6SM BR SCT250=

USA.gov is the U.S. government's official web portal to all federal, state and local government web resources and services.